sensor_id;sensor_type;location;lat;lon;timestamp;P1;durP1;ratioP1;P2;durP2;ratioP2
61689;SDS011;47601;52.086;4.878;2022-07-18T00:00:21;8.48;;;5.72;;
61689;SDS011;47601;52.086;4.878;2022-07-18T00:02:47;9.55;;;5.82;;
61689;SDS011;47601;52.086;4.878;2022-07-18T00:05:12;8.13;;;6.18;;
61689;SDS011;47601;52.086;4.878;2022-07-18T00:07:38;8.43;;;6.47;;
61689;SDS011;47601;52.086;4.878;2022-07-18T00:10:04;9.45;;;6.70;;
61689;SDS011;47601;52.086;4.878;2022-07-18T00:12:29;9.90;;;6.60;;
61689;SDS011;47601;52.086;4.878;2022-07-18T00:14:55;10.90;;;6.15;;
61689;SDS011;47601;52.086;4.878;2022-07-18T00:17:20;8.57;;;6.43;;
61689;SDS011;47601;52.086;4.878;2022-07-18T00:19:46;9.13;;;6.47;;
61689;SDS011;47601;52.086;4.878;2022-07-18T00:22:11;9.38;;;6.85;;
61689;SDS011;47601;52.086;4.878;2022-07-18T00:24:37;8.18;;;6.10;;
61689;SDS011;47601;52.086;4.878;2022-07-18T00:27:05;9.82;;;6.60;;
61689;SDS011;47601;52.086;4.878;2022-07-18T00:29:32;10.55;;;6.75;;
61689;SDS011;47601;52.086;4.878;2022-07-18T00:32:01;9.35;;;6.75;;
61689;SDS011;47601;52.086;4.878;2022-07-18T00:34:26;10.13;;;6.43;;
61689;SDS011;47601;52.086;4.878;2022-07-18T00:36:52;9.80;;;6.50;;
61689;SDS011;47601;52.086;4.878;2022-07-18T00:39:17;8.82;;;6.35;;
61689;SDS011;47601;52.086;4.878;2022-07-18T00:41:46;8.27;;;6.35;;
61689;SDS011;47601;52.086;4.878;2022-07-18T00:44:21;9.40;;;6.72;;
61689;SDS011;47601;52.086;4.878;2022-07-18T00:46:48;8.68;;;6.82;;
61689;SDS011;47601;52.086;4.878;2022-07-18T00:49:18;9.65;;;6.38;;
61689;SDS011;47601;52.086;4.878;2022-07-18T00:51:43;8.93;;;6.78;;
61689;SDS011;47601;52.086;4.878;2022-07-18T00:54:09;9.55;;;6.72;;
61689;SDS011;47601;52.086;4.878;2022-07-18T00:56:34;10.77;;;6.72;;
61689;SDS011;47601;52.086;4.878;2022-07-18T00:59:00;8.23;;;6.53;;
61689;SDS011;47601;52.086;4.878;2022-07-18T01:01:26;9.43;;;7.10;;
61689;SDS011;47601;52.086;4.878;2022-07-18T01:04:12;10.48;;;6.82;;
61689;SDS011;47601;52.086;4.878;2022-07-18T01:06:39;8.20;;;6.53;;
61689;SDS011;47601;52.086;4.878;2022-07-18T01:09:05;9.45;;;7.45;;
61689;SDS011;47601;52.086;4.878;2022-07-18T01:11:31;8.50;;;6.43;;
61689;SDS011;47601;52.086;4.878;2022-07-18T01:13:57;10.02;;;7.07;;
61689;SDS011;47601;52.086;4.878;2022-07-18T01:16:23;9.75;;;7.20;;
61689;SDS011;47601;52.086;4.878;2022-07-18T01:18:49;9.35;;;7.20;;
61689;SDS011;47601;52.086;4.878;2022-07-18T01:21:15;10.18;;;7.30;;
61689;SDS011;47601;52.086;4.878;2022-07-18T01:23:42;9.85;;;7.30;;
61689;SDS011;47601;52.086;4.878;2022-07-18T01:26:07;13.55;;;7.00;;
61689;SDS011;47601;52.086;4.878;2022-07-18T01:28:34;10.27;;;7.20;;
61689;SDS011;47601;52.086;4.878;2022-07-18T01:31:00;8.48;;;6.55;;
61689;SDS011;47601;52.086;4.878;2022-07-18T01:33:25;9.60;;;6.97;;
61689;SDS011;47601;52.086;4.878;2022-07-18T01:35:50;10.35;;;7.78;;
61689;SDS011;47601;52.086;4.878;2022-07-18T01:38:16;10.10;;;7.47;;
61689;SDS011;47601;52.086;4.878;2022-07-18T01:40:43;9.07;;;6.97;;
61689;SDS011;47601;52.086;4.878;2022-07-18T01:43:09;12.23;;;7.72;;
61689;SDS011;47601;52.086;4.878;2022-07-18T01:45:34;12.63;;;7.50;;
61689;SDS011;47601;52.086;4.878;2022-07-18T01:47:59;11.77;;;7.95;;
61689;SDS011;47601;52.086;4.878;2022-07-18T01:50:25;10.38;;;7.20;;
61689;SDS011;47601;52.086;4.878;2022-07-18T01:52:50;13.00;;;8.10;;
61689;SDS011;47601;52.086;4.878;2022-07-18T01:55:16;10.50;;;7.40;;
61689;SDS011;47601;52.086;4.878;2022-07-18T01:57:41;10.32;;;7.55;;
61689;SDS011;47601;52.086;4.878;2022-07-18T02:00:08;12.30;;;7.70;;
61689;SDS011;47601;52.086;4.878;2022-07-18T02:02:35;11.55;;;7.68;;
61689;SDS011;47601;52.086;4.878;2022-07-18T02:05:00;13.02;;;8.88;;
61689;SDS011;47601;52.086;4.878;2022-07-18T02:07:26;13.05;;;9.02;;
61689;SDS011;47601;52.086;4.878;2022-07-18T02:09:53;10.60;;;8.07;;
61689;SDS011;47601;52.086;4.878;2022-07-18T02:12:19;13.25;;;8.02;;
61689;SDS011;47601;52.086;4.878;2022-07-18T02:14:45;10.50;;;7.95;;
61689;SDS011;47601;52.086;4.878;2022-07-18T02:17:10;13.35;;;8.98;;
61689;SDS011;47601;52.086;4.878;2022-07-18T02:19:36;15.07;;;9.45;;
61689;SDS011;47601;52.086;4.878;2022-07-18T02:22:01;12.45;;;9.60;;
61689;SDS011;47601;52.086;4.878;2022-07-18T02:24:26;12.48;;;9.35;;
61689;SDS011;47601;52.086;4.878;2022-07-18T02:26:52;13.85;;;9.68;;
61689;SDS011;47601;52.086;4.878;2022-07-18T02:29:17;13.07;;;8.82;;
61689;SDS011;47601;52.086;4.878;2022-07-18T02:31:43;13.00;;;9.23;;
61689;SDS011;47601;52.086;4.878;2022-07-18T02:34:08;12.48;;;9.35;;
61689;SDS011;47601;52.086;4.878;2022-07-18T02:36:37;13.75;;;9.20;;
61689;SDS011;47601;52.086;4.878;2022-07-18T02:39:03;13.30;;;9.93;;
61689;SDS011;47601;52.086;4.878;2022-07-18T02:41:29;16.35;;;9.55;;
61689;SDS011;47601;52.086;4.878;2022-07-18T02:43:54;14.95;;;9.48;;
61689;SDS011;47601;52.086;4.878;2022-07-18T02:46:20;15.68;;;9.57;;
61689;SDS011;47601;52.086;4.878;2022-07-18T02:48:45;9.85;;;8.65;;
61689;SDS011;47601;52.086;4.878;2022-07-18T02:51:12;12.48;;;9.00;;
61689;SDS011;47601;52.086;4.878;2022-07-18T02:53:37;13.02;;;9.45;;
61689;SDS011;47601;52.086;4.878;2022-07-18T02:56:03;15.80;;;9.15;;
61689;SDS011;47601;52.086;4.878;2022-07-18T02:58:28;16.45;;;9.63;;
61689;SDS011;47601;52.086;4.878;2022-07-18T03:00:54;12.68;;;8.57;;
61689;SDS011;47601;52.086;4.878;2022-07-18T03:03:20;12.02;;;9.38;;
61689;SDS011;47601;52.086;4.878;2022-07-18T03:05:45;13.32;;;8.88;;
61689;SDS011;47601;52.086;4.878;2022-07-18T03:08:11;11.88;;;8.63;;
61689;SDS011;47601;52.086;4.878;2022-07-18T03:10:36;13.30;;;9.15;;
61689;SDS011;47601;52.086;4.878;2022-07-18T03:13:01;12.35;;;9.18;;
61689;SDS011;47601;52.086;4.878;2022-07-18T03:15:27;13.70;;;9.05;;
61689;SDS011;47601;52.086;4.878;2022-07-18T03:17:52;12.43;;;8.65;;
61689;SDS011;47601;52.086;4.878;2022-07-18T03:20:17;14.85;;;9.32;;
61689;SDS011;47601;52.086;4.878;2022-07-18T03:22:43;13.48;;;9.00;;
61689;SDS011;47601;52.086;4.878;2022-07-18T03:25:08;12.80;;;9.15;;
61689;SDS011;47601;52.086;4.878;2022-07-18T03:27:34;13.75;;;9.45;;
61689;SDS011;47601;52.086;4.878;2022-07-18T03:29:59;11.57;;;8.80;;
61689;SDS011;47601;52.086;4.878;2022-07-18T03:32:24;12.80;;;9.10;;
61689;SDS011;47601;52.086;4.878;2022-07-18T03:34:50;14.43;;;9.38;;
61689;SDS011;47601;52.086;4.878;2022-07-18T03:37:15;13.35;;;8.77;;
61689;SDS011;47601;52.086;4.878;2022-07-18T03:39:41;10.65;;;7.88;;
61689;SDS011;47601;52.086;4.878;2022-07-18T03:42:06;14.02;;;8.77;;
61689;SDS011;47601;52.086;4.878;2022-07-18T03:44:31;14.02;;;8.85;;
61689;SDS011;47601;52.086;4.878;2022-07-18T03:46:57;11.15;;;8.13;;
61689;SDS011;47601;52.086;4.878;2022-07-18T03:49:22;14.65;;;8.65;;
61689;SDS011;47601;52.086;4.878;2022-07-18T03:51:47;13.73;;;7.93;;
61689;SDS011;47601;52.086;4.878;2022-07-18T03:54:13;10.68;;;7.25;;
61689;SDS011;47601;52.086;4.878;2022-07-18T03:56:38;12.95;;;7.85;;
61689;SDS011;47601;52.086;4.878;2022-07-18T03:59:04;11.73;;;8.00;;
61689;SDS011;47601;52.086;4.878;2022-07-18T04:01:29;11.55;;;8.65;;
61689;SDS011;47601;52.086;4.878;2022-07-18T04:03:55;9.73;;;7.03;;
61689;SDS011;47601;52.086;4.878;2022-07-18T04:06:20;13.65;;;8.15;;
61689;SDS011;47601;52.086;4.878;2022-07-18T04:08:46;14.05;;;7.55;;
61689;SDS011;47601;52.086;4.878;2022-07-18T04:11:12;12.20;;;7.75;;
61689;SDS011;47601;52.086;4.878;2022-07-18T04:13:37;12.63;;;7.78;;
61689;SDS011;47601;52.086;4.878;2022-07-18T04:16:03;15.68;;;8.23;;
61689;SDS011;47601;52.086;4.878;2022-07-18T04:18:28;11.30;;;8.27;;
61689;SDS011;47601;52.086;4.878;2022-07-18T04:20:54;12.38;;;7.63;;
61689;SDS011;47601;52.086;4.878;2022-07-18T04:23:19;12.40;;;8.85;;
61689;SDS011;47601;52.086;4.878;2022-07-18T04:25:45;10.63;;;8.00;;
61689;SDS011;47601;52.086;4.878;2022-07-18T04:28:11;10.52;;;7.32;;
61689;SDS011;47601;52.086;4.878;2022-07-18T04:30:38;11.20;;;7.22;;
61689;SDS011;47601;52.086;4.878;2022-07-18T04:33:06;9.87;;;7.30;;
61689;SDS011;47601;52.086;4.878;2022-07-18T04:35:32;11.13;;;7.53;;
61689;SDS011;47601;52.086;4.878;2022-07-18T04:40:26;11.13;;;6.60;;
61689;SDS011;47601;52.086;4.878;2022-07-18T04:42:51;11.43;;;6.65;;
61689;SDS011;47601;52.086;4.878;2022-07-18T04:45:17;9.30;;;6.97;;
61689;SDS011;47601;52.086;4.878;2022-07-18T04:47:46;10.23;;;7.28;;
61689;SDS011;47601;52.086;4.878;2022-07-18T04:50:12;10.30;;;6.97;;
61689;SDS011;47601;52.086;4.878;2022-07-18T04:52:39;11.57;;;6.00;;
61689;SDS011;47601;52.086;4.878;2022-07-18T04:55:06;8.40;;;6.18;;
61689;SDS011;47601;52.086;4.878;2022-07-18T04:57:33;9.25;;;5.82;;
61689;SDS011;47601;52.086;4.878;2022-07-18T04:59:59;8.98;;;6.43;;
61689;SDS011;47601;52.086;4.878;2022-07-18T05:02:25;10.00;;;6.53;;
61689;SDS011;47601;52.086;4.878;2022-07-18T05:04:51;10.30;;;6.60;;
61689;SDS011;47601;52.086;4.878;2022-07-18T05:07:16;8.23;;;6.47;;
61689;SDS011;47601;52.086;4.878;2022-07-18T05:09:41;11.02;;;7.05;;
61689;SDS011;47601;52.086;4.878;2022-07-18T05:12:07;11.60;;;6.47;;
61689;SDS011;47601;52.086;4.878;2022-07-18T05:14:32;13.10;;;6.82;;
61689;SDS011;47601;52.086;4.878;2022-07-18T05:16:57;8.32;;;6.05;;
61689;SDS011;47601;52.086;4.878;2022-07-18T05:19:23;14.40;;;7.15;;
61689;SDS011;47601;52.086;4.878;2022-07-18T05:21:48;11.07;;;6.35;;
61689;SDS011;47601;52.086;4.878;2022-07-18T05:24:13;7.43;;;6.00;;
61689;SDS011;47601;52.086;4.878;2022-07-18T05:26:39;8.38;;;5.90;;
61689;SDS011;47601;52.086;4.878;2022-07-18T05:29:04;8.60;;;5.90;;
61689;SDS011;47601;52.086;4.878;2022-07-18T05:31:30;10.50;;;6.43;;
61689;SDS011;47601;52.086;4.878;2022-07-18T05:33:55;9.05;;;5.88;;
61689;SDS011;47601;52.086;4.878;2022-07-18T05:36:20;9.07;;;6.40;;
61689;SDS011;47601;52.086;4.878;2022-07-18T05:38:46;10.32;;;6.80;;
61689;SDS011;47601;52.086;4.878;2022-07-18T05:41:11;8.88;;;6.20;;
61689;SDS011;47601;52.086;4.878;2022-07-18T05:43:37;10.32;;;6.68;;
61689;SDS011;47601;52.086;4.878;2022-07-18T05:46:02;14.82;;;6.68;;
61689;SDS011;47601;52.086;4.878;2022-07-18T05:48:28;10.77;;;6.22;;
61689;SDS011;47601;52.086;4.878;2022-07-18T05:50:53;13.98;;;5.72;;
61689;SDS011;47601;52.086;4.878;2022-07-18T05:53:19;10.30;;;5.82;;
61689;SDS011;47601;52.086;4.878;2022-07-18T05:55:44;9.32;;;6.63;;
61689;SDS011;47601;52.086;4.878;2022-07-18T05:58:09;11.15;;;6.03;;
61689;SDS011;47601;52.086;4.878;2022-07-18T06:00:35;9.77;;;6.43;;
61689;SDS011;47601;52.086;4.878;2022-07-18T06:03:00;9.55;;;5.72;;
61689;SDS011;47601;52.086;4.878;2022-07-18T06:05:26;16.02;;;6.32;;
61689;SDS011;47601;52.086;4.878;2022-07-18T06:07:52;11.68;;;6.00;;
61689;SDS011;47601;52.086;4.878;2022-07-18T06:10:19;10.52;;;6.38;;
61689;SDS011;47601;52.086;4.878;2022-07-18T06:12:44;10.07;;;5.88;;
61689;SDS011;47601;52.086;4.878;2022-07-18T06:15:11;8.80;;;6.40;;
61689;SDS011;47601;52.086;4.878;2022-07-18T06:17:37;8.50;;;5.97;;
61689;SDS011;47601;52.086;4.878;2022-07-18T06:20:03;9.95;;;6.25;;
61689;SDS011;47601;52.086;4.878;2022-07-18T06:22:30;10.80;;;5.88;;
61689;SDS011;47601;52.086;4.878;2022-07-18T06:24:56;12.10;;;6.28;;
61689;SDS011;47601;52.086;4.878;2022-07-18T06:27:21;9.82;;;6.32;;
61689;SDS011;47601;52.086;4.878;2022-07-18T06:29:47;9.43;;;6.63;;
61689;SDS011;47601;52.086;4.878;2022-07-18T06:32:12;9.88;;;6.68;;
61689;SDS011;47601;52.086;4.878;2022-07-18T06:34:37;10.05;;;6.30;;
61689;SDS011;47601;52.086;4.878;2022-07-18T06:37:03;9.77;;;6.38;;
61689;SDS011;47601;52.086;4.878;2022-07-18T06:39:28;8.27;;;6.13;;
61689;SDS011;47601;52.086;4.878;2022-07-18T06:41:54;10.23;;;6.97;;
61689;SDS011;47601;52.086;4.878;2022-07-18T06:44:19;10.13;;;6.75;;
61689;SDS011;47601;52.086;4.878;2022-07-18T06:46:44;11.38;;;7.05;;
61689;SDS011;47601;52.086;4.878;2022-07-18T06:49:10;8.98;;;6.90;;
61689;SDS011;47601;52.086;4.878;2022-07-18T06:51:35;8.93;;;6.50;;
61689;SDS011;47601;52.086;4.878;2022-07-18T06:54:01;7.68;;;6.82;;
61689;SDS011;47601;52.086;4.878;2022-07-18T06:56:26;8.77;;;6.53;;
61689;SDS011;47601;52.086;4.878;2022-07-18T06:58:52;8.32;;;6.53;;
61689;SDS011;47601;52.086;4.878;2022-07-18T07:01:18;9.73;;;6.22;;
61689;SDS011;47601;52.086;4.878;2022-07-18T07:03:44;11.00;;;6.60;;
61689;SDS011;47601;52.086;4.878;2022-07-18T07:06:10;11.30;;;6.50;;
61689;SDS011;47601;52.086;4.878;2022-07-18T07:08:36;9.65;;;6.45;;
61689;SDS011;47601;52.086;4.878;2022-07-18T07:11:01;9.18;;;6.53;;
61689;SDS011;47601;52.086;4.878;2022-07-18T07:13:27;10.60;;;6.78;;
61689;SDS011;47601;52.086;4.878;2022-07-18T07:15:52;6.78;;;5.63;;
61689;SDS011;47601;52.086;4.878;2022-07-18T07:18:18;11.18;;;6.80;;
61689;SDS011;47601;52.086;4.878;2022-07-18T07:20:43;12.90;;;6.40;;
61689;SDS011;47601;52.086;4.878;2022-07-18T07:23:09;11.10;;;6.95;;
61689;SDS011;47601;52.086;4.878;2022-07-18T07:25:34;8.63;;;6.32;;
61689;SDS011;47601;52.086;4.878;2022-07-18T07:28:02;9.05;;;6.35;;
61689;SDS011;47601;52.086;4.878;2022-07-18T07:30:28;7.57;;;6.15;;
61689;SDS011;47601;52.086;4.878;2022-07-18T07:32:54;8.35;;;6.15;;
61689;SDS011;47601;52.086;4.878;2022-07-18T07:35:19;10.23;;;6.50;;
61689;SDS011;47601;52.086;4.878;2022-07-18T07:37:47;7.15;;;6.03;;
61689;SDS011;47601;52.086;4.878;2022-07-18T07:40:14;8.80;;;5.97;;
61689;SDS011;47601;52.086;4.878;2022-07-18T07:42:40;8.57;;;6.30;;
61689;SDS011;47601;52.086;4.878;2022-07-18T07:45:06;8.43;;;6.85;;
61689;SDS011;47601;52.086;4.878;2022-07-18T07:47:31;11.45;;;6.78;;
61689;SDS011;47601;52.086;4.878;2022-07-18T07:49:57;14.23;;;6.93;;
61689;SDS011;47601;52.086;4.878;2022-07-18T07:52:23;9.63;;;6.38;;
61689;SDS011;47601;52.086;4.878;2022-07-18T07:54:49;10.52;;;6.70;;
61689;SDS011;47601;52.086;4.878;2022-07-18T07:57:17;7.82;;;6.25;;
61689;SDS011;47601;52.086;4.878;2022-07-18T07:59:43;12.00;;;6.22;;
61689;SDS011;47601;52.086;4.878;2022-07-18T08:02:08;8.00;;;6.20;;
61689;SDS011;47601;52.086;4.878;2022-07-18T08:04:33;9.52;;;6.47;;
61689;SDS011;47601;52.086;4.878;2022-07-18T08:06:59;9.07;;;6.18;;
61689;SDS011;47601;52.086;4.878;2022-07-18T08:09:24;12.37;;;6.47;;
61689;SDS011;47601;52.086;4.878;2022-07-18T08:11:50;9.80;;;5.87;;
61689;SDS011;47601;52.086;4.878;2022-07-18T08:14:15;8.05;;;6.05;;
61689;SDS011;47601;52.086;4.878;2022-07-18T08:16:41;12.77;;;6.27;;
61689;SDS011;47601;52.086;4.878;2022-07-18T08:19:06;9.03;;;5.80;;
61689;SDS011;47601;52.086;4.878;2022-07-18T08:21:32;9.37;;;5.50;;
61689;SDS011;47601;52.086;4.878;2022-07-18T08:23:57;6.97;;;5.43;;
61689;SDS011;47601;52.086;4.878;2022-07-18T08:26:23;8.27;;;5.80;;
61689;SDS011;47601;52.086;4.878;2022-07-18T08:28:48;7.37;;;5.03;;
61689;SDS011;47601;52.086;4.878;2022-07-18T08:31:14;9.43;;;5.13;;
61689;SDS011;47601;52.086;4.878;2022-07-18T08:33:39;9.17;;;5.33;;
61689;SDS011;47601;52.086;4.878;2022-07-18T08:36:05;9.63;;;5.30;;
61689;SDS011;47601;52.086;4.878;2022-07-18T08:38:30;9.27;;;5.13;;
61689;SDS011;47601;52.086;4.878;2022-07-18T08:40:56;8.50;;;5.17;;
61689;SDS011;47601;52.086;4.878;2022-07-18T08:43:22;8.63;;;5.37;;
61689;SDS011;47601;52.086;4.878;2022-07-18T08:46:04;8.95;;;5.18;;
61689;SDS011;47601;52.086;4.878;2022-07-18T08:48:30;12.65;;;5.65;;
61689;SDS011;47601;52.086;4.878;2022-07-18T08:50:56;10.80;;;5.72;;
61689;SDS011;47601;52.086;4.878;2022-07-18T08:53:21;6.40;;;4.57;;
61689;SDS011;47601;52.086;4.878;2022-07-18T08:55:47;7.77;;;4.50;;
61689;SDS011;47601;52.086;4.878;2022-07-18T08:58:13;10.20;;;5.85;;
61689;SDS011;47601;52.086;4.878;2022-07-18T09:00:39;8.50;;;5.38;;
61689;SDS011;47601;52.086;4.878;2022-07-18T09:03:05;10.33;;;5.07;;
61689;SDS011;47601;52.086;4.878;2022-07-18T09:05:32;7.53;;;4.30;;
61689;SDS011;47601;52.086;4.878;2022-07-18T09:08:11;7.30;;;4.68;;
61689;SDS011;47601;52.086;4.878;2022-07-18T09:10:56;7.13;;;4.90;;
61689;SDS011;47601;52.086;4.878;2022-07-18T09:13:44;6.57;;;4.70;;
61689;SDS011;47601;52.086;4.878;2022-07-18T09:16:09;7.55;;;4.50;;
61689;SDS011;47601;52.086;4.878;2022-07-18T09:18:36;5.80;;;4.25;;
61689;SDS011;47601;52.086;4.878;2022-07-18T09:21:04;7.47;;;4.22;;
61689;SDS011;47601;52.086;4.878;2022-07-18T09:23:34;8.95;;;4.50;;
61689;SDS011;47601;52.086;4.878;2022-07-18T09:26:00;7.85;;;4.22;;
61689;SDS011;47601;52.086;4.878;2022-07-18T09:28:27;10.13;;;4.90;;
61689;SDS011;47601;52.086;4.878;2022-07-18T09:30:54;6.40;;;4.22;;
61689;SDS011;47601;52.086;4.878;2022-07-18T09:33:20;4.95;;;3.88;;
61689;SDS011;47601;52.086;4.878;2022-07-18T09:35:52;6.65;;;3.70;;
61689;SDS011;47601;52.086;4.878;2022-07-18T09:38:22;7.95;;;4.47;;
61689;SDS011;47601;52.086;4.878;2022-07-18T09:40:54;8.40;;;5.15;;
61689;SDS011;47601;52.086;4.878;2022-07-18T09:43:21;8.57;;;4.43;;
61689;SDS011;47601;52.086;4.878;2022-07-18T09:45:48;8.00;;;4.55;;
61689;SDS011;47601;52.086;4.878;2022-07-18T09:48:19;5.90;;;5.13;;
61689;SDS011;47601;52.086;4.878;2022-07-18T09:53:19;5.70;;;4.77;;
61689;SDS011;47601;52.086;4.878;2022-07-18T09:55:52;6.47;;;4.53;;
61689;SDS011;47601;52.086;4.878;2022-07-18T09:58:20;8.05;;;5.18;;
61689;SDS011;47601;52.086;4.878;2022-07-18T10:00:50;6.65;;;4.60;;
61689;SDS011;47601;52.086;4.878;2022-07-18T10:03:16;7.30;;;4.32;;
61689;SDS011;47601;52.086;4.878;2022-07-18T10:05:43;5.13;;;4.05;;
61689;SDS011;47601;52.086;4.878;2022-07-18T10:08:11;4.65;;;3.70;;
61689;SDS011;47601;52.086;4.878;2022-07-18T10:10:46;7.63;;;3.80;;
61689;SDS011;47601;52.086;4.878;2022-07-18T10:13:13;5.88;;;3.58;;
61689;SDS011;47601;52.086;4.878;2022-07-18T10:15:41;5.93;;;3.40;;
61689;SDS011;47601;52.086;4.878;2022-07-18T10:18:08;4.80;;;3.83;;
61689;SDS011;47601;52.086;4.878;2022-07-18T10:20:37;6.65;;;3.63;;
61689;SDS011;47601;52.086;4.878;2022-07-18T10:23:16;6.28;;;3.30;;
61689;SDS011;47601;52.086;4.878;2022-07-18T10:25:43;5.57;;;3.65;;
61689;SDS011;47601;52.086;4.878;2022-07-18T10:28:10;8.15;;;4.05;;
61689;SDS011;47601;52.086;4.878;2022-07-18T10:30:38;5.40;;;4.65;;
61689;SDS011;47601;52.086;4.878;2022-07-18T10:36:17;6.47;;;4.78;;
61689;SDS011;47601;52.086;4.878;2022-07-18T10:41:27;6.18;;;3.58;;
61689;SDS011;47601;52.086;4.878;2022-07-18T10:43:52;5.30;;;4.07;;
61689;SDS011;47601;52.086;4.878;2022-07-18T10:46:18;9.97;;;5.00;;
61689;SDS011;47601;52.086;4.878;2022-07-18T10:57:04;5.97;;;4.30;;
61689;SDS011;47601;52.086;4.878;2022-07-18T10:59:17;5.97;;;4.47;;
61689;SDS011;47601;52.086;4.878;2022-07-18T11:01:51;7.38;;;4.60;;
61689;SDS011;47601;52.086;4.878;2022-07-18T11:04:35;7.57;;;3.28;;
61689;SDS011;47601;52.086;4.878;2022-07-18T11:07:03;6.95;;;3.35;;
61689;SDS011;47601;52.086;4.878;2022-07-18T11:09:38;7.18;;;3.70;;
61689;SDS011;47601;52.086;4.878;2022-07-18T11:12:24;6.35;;;4.13;;
61689;SDS011;47601;52.086;4.878;2022-07-18T11:15:00;3.95;;;3.08;;
61689;SDS011;47601;52.086;4.878;2022-07-18T11:20:22;6.20;;;3.53;;
61689;SDS011;47601;52.086;4.878;2022-07-18T11:22:48;4.68;;;3.88;;
61689;SDS011;47601;52.086;4.878;2022-07-18T11:25:14;7.50;;;3.92;;
61689;SDS011;47601;52.086;4.878;2022-07-18T11:27:42;3.67;;;2.42;;
61689;SDS011;47601;52.086;4.878;2022-07-18T11:30:08;4.20;;;2.40;;
61689;SDS011;47601;52.086;4.878;2022-07-18T11:32:34;4.68;;;2.25;;
61689;SDS011;47601;52.086;4.878;2022-07-18T11:34:59;2.53;;;1.80;;
61689;SDS011;47601;52.086;4.878;2022-07-18T11:37:25;3.10;;;1.90;;
61689;SDS011;47601;52.086;4.878;2022-07-18T11:39:50;4.25;;;1.65;;
61689;SDS011;47601;52.086;4.878;2022-07-18T11:42:16;3.03;;;2.03;;
61689;SDS011;47601;52.086;4.878;2022-07-18T11:44:43;3.90;;;2.30;;
61689;SDS011;47601;52.086;4.878;2022-07-18T11:47:09;6.00;;;2.42;;
61689;SDS011;47601;52.086;4.878;2022-07-18T11:49:37;4.93;;;2.05;;
61689;SDS011;47601;52.086;4.878;2022-07-18T11:52:03;5.90;;;2.80;;
61689;SDS011;47601;52.086;4.878;2022-07-18T11:54:29;4.18;;;2.55;;
61689;SDS011;47601;52.086;4.878;2022-07-18T11:56:58;5.07;;;2.92;;
61689;SDS011;47601;52.086;4.878;2022-07-18T11:59:34;5.60;;;2.58;;
61689;SDS011;47601;52.086;4.878;2022-07-18T12:02:01;3.80;;;2.70;;
61689;SDS011;47601;52.086;4.878;2022-07-18T12:04:27;8.13;;;2.97;;
61689;SDS011;47601;52.086;4.878;2022-07-18T12:09:41;5.38;;;2.53;;
61689;SDS011;47601;52.086;4.878;2022-07-18T12:12:11;4.68;;;2.88;;
61689;SDS011;47601;52.086;4.878;2022-07-18T12:14:37;5.28;;;2.45;;
61689;SDS011;47601;52.086;4.878;2022-07-18T12:17:04;5.53;;;2.92;;
61689;SDS011;47601;52.086;4.878;2022-07-18T12:19:34;4.90;;;2.80;;
61689;SDS011;47601;52.086;4.878;2022-07-18T12:24:31;5.45;;;2.70;;
61689;SDS011;47601;52.086;4.878;2022-07-18T12:27:09;3.63;;;2.60;;
61689;SDS011;47601;52.086;4.878;2022-07-18T12:32:48;3.45;;;2.53;;
61689;SDS011;47601;52.086;4.878;2022-07-18T12:35:28;5.07;;;2.50;;
61689;SDS011;47601;52.086;4.878;2022-07-18T12:38:00;6.53;;;2.90;;
61689;SDS011;47601;52.086;4.878;2022-07-18T12:43:14;2.97;;;2.47;;
61689;SDS011;47601;52.086;4.878;2022-07-18T12:45:41;3.25;;;2.95;;
61689;SDS011;47601;52.086;4.878;2022-07-18T12:48:08;6.20;;;2.70;;
61689;SDS011;47601;52.086;4.878;2022-07-18T12:50:35;4.50;;;2.50;;
61689;SDS011;47601;52.086;4.878;2022-07-18T12:53:01;3.42;;;2.75;;
61689;SDS011;47601;52.086;4.878;2022-07-18T12:55:26;4.43;;;2.42;;
61689;SDS011;47601;52.086;4.878;2022-07-18T12:57:52;4.28;;;2.85;;
61689;SDS011;47601;52.086;4.878;2022-07-18T13:00:18;4.28;;;3.00;;
61689;SDS011;47601;52.086;4.878;2022-07-18T13:02:43;4.05;;;2.72;;
61689;SDS011;47601;52.086;4.878;2022-07-18T13:05:10;3.40;;;2.60;;
61689;SDS011;47601;52.086;4.878;2022-07-18T13:07:36;5.93;;;3.15;;
61689;SDS011;47601;52.086;4.878;2022-07-18T13:10:02;4.35;;;2.75;;
61689;SDS011;47601;52.086;4.878;2022-07-18T13:12:28;4.93;;;2.70;;
61689;SDS011;47601;52.086;4.878;2022-07-18T13:14:53;4.47;;;2.70;;
61689;SDS011;47601;52.086;4.878;2022-07-18T13:17:19;5.82;;;2.85;;
61689;SDS011;47601;52.086;4.878;2022-07-18T13:19:44;3.97;;;2.60;;
61689;SDS011;47601;52.086;4.878;2022-07-18T13:22:10;7.13;;;3.00;;
61689;SDS011;47601;52.086;4.878;2022-07-18T13:24:36;4.95;;;2.80;;
61689;SDS011;47601;52.086;4.878;2022-07-18T13:27:02;4.53;;;2.78;;
61689;SDS011;47601;52.086;4.878;2022-07-18T13:29:28;5.22;;;3.08;;
61689;SDS011;47601;52.086;4.878;2022-07-18T13:31:54;4.80;;;2.75;;
61689;SDS011;47601;52.086;4.878;2022-07-18T13:34:20;3.28;;;2.55;;
61689;SDS011;47601;52.086;4.878;2022-07-18T13:36:46;7.10;;;2.90;;
61689;SDS011;47601;52.086;4.878;2022-07-18T13:39:13;5.25;;;2.85;;
61689;SDS011;47601;52.086;4.878;2022-07-18T13:41:38;7.53;;;2.83;;
61689;SDS011;47601;52.086;4.878;2022-07-18T13:44:04;7.75;;;2.63;;
61689;SDS011;47601;52.086;4.878;2022-07-18T13:46:29;3.85;;;2.47;;
61689;SDS011;47601;52.086;4.878;2022-07-18T13:48:55;6.68;;;2.60;;
61689;SDS011;47601;52.086;4.878;2022-07-18T13:51:20;3.40;;;2.53;;
61689;SDS011;47601;52.086;4.878;2022-07-18T13:53:46;4.95;;;2.97;;
61689;SDS011;47601;52.086;4.878;2022-07-18T13:56:11;5.28;;;2.35;;
61689;SDS011;47601;52.086;4.878;2022-07-18T13:58:36;4.95;;;2.70;;
61689;SDS011;47601;52.086;4.878;2022-07-18T14:01:02;3.70;;;2.03;;
61689;SDS011;47601;52.086;4.878;2022-07-18T14:03:27;3.03;;;2.58;;
61689;SDS011;47601;52.086;4.878;2022-07-18T14:05:53;8.13;;;2.75;;
61689;SDS011;47601;52.086;4.878;2022-07-18T14:08:18;2.80;;;2.47;;
61689;SDS011;47601;52.086;4.878;2022-07-18T14:10:44;5.90;;;2.30;;
61689;SDS011;47601;52.086;4.878;2022-07-18T14:13:09;5.63;;;2.42;;
61689;SDS011;47601;52.086;4.878;2022-07-18T14:15:34;4.63;;;2.70;;
61689;SDS011;47601;52.086;4.878;2022-07-18T14:18:00;8.32;;;2.85;;
61689;SDS011;47601;52.086;4.878;2022-07-18T14:20:26;3.57;;;2.40;;
61689;SDS011;47601;52.086;4.878;2022-07-18T14:22:52;4.65;;;2.33;;
61689;SDS011;47601;52.086;4.878;2022-07-18T14:25:18;6.10;;;2.60;;
61689;SDS011;47601;52.086;4.878;2022-07-18T14:27:44;3.05;;;2.17;;
61689;SDS011;47601;52.086;4.878;2022-07-18T14:30:11;4.70;;;2.47;;
61689;SDS011;47601;52.086;4.878;2022-07-18T14:32:37;3.88;;;2.45;;
61689;SDS011;47601;52.086;4.878;2022-07-18T14:35:03;6.18;;;2.17;;
61689;SDS011;47601;52.086;4.878;2022-07-18T14:37:29;5.13;;;2.35;;
61689;SDS011;47601;52.086;4.878;2022-07-18T14:39:54;3.60;;;2.20;;
61689;SDS011;47601;52.086;4.878;2022-07-18T14:42:20;3.45;;;2.00;;
61689;SDS011;47601;52.086;4.878;2022-07-18T14:44:45;3.58;;;2.40;;
61689;SDS011;47601;52.086;4.878;2022-07-18T14:47:10;3.75;;;2.40;;
61689;SDS011;47601;52.086;4.878;2022-07-18T14:49:36;4.20;;;2.67;;
61689;SDS011;47601;52.086;4.878;2022-07-18T14:52:01;2.88;;;2.33;;
61689;SDS011;47601;52.086;4.878;2022-07-18T14:54:27;2.33;;;2.13;;
61689;SDS011;47601;52.086;4.878;2022-07-18T14:56:53;4.40;;;2.83;;
61689;SDS011;47601;52.086;4.878;2022-07-18T14:59:19;3.03;;;2.47;;
61689;SDS011;47601;52.086;4.878;2022-07-18T15:01:45;4.68;;;2.60;;
61689;SDS011;47601;52.086;4.878;2022-07-18T15:04:11;3.40;;;2.53;;
61689;SDS011;47601;52.086;4.878;2022-07-18T15:06:36;3.25;;;2.95;;
61689;SDS011;47601;52.086;4.878;2022-07-18T15:09:02;3.05;;;2.65;;
61689;SDS011;47601;52.086;4.878;2022-07-18T15:11:28;3.90;;;2.33;;